Time;durP1;ratioP1;P1;durP2;ratioP2;P2;SDS_P1;SDS_P2;PMS_P1;PMS_P2;Temp;Humidity;BMP_temperature;BMP_pressure;BME280_temperature;BME280_humidity;BME280_pressure;Samples;Min_cycle;Max_cycle;Signal;HPM_P1;HPM_P2
2022/04/25 00:00:43;;;;;;;;;;;9.70;93.00;;;;;;5094081;28;19948;-89
2022/04/25 00:03:08;;;;;;;;;;;9.80;92.80;;;;;;5092794;28;19946;-89
2022/04/25 00:05:34;;;;;;;;;;;9.80;92.50;;;;;;5093966;28;19947;-89
2022/04/25 00:07:59;;;;;;;;;;;9.90;92.20;;;;;;5093392;28;19947;-89
2022/04/25 00:10:25;;;;;;;;;;;9.80;91.30;;;;;;5093441;28;19973;-89
2022/04/25 00:12:50;;;;;;;;;;;9.80;91.30;;;;;;5093811;28;19962;-89
2022/04/25 00:15:16;;;;;;;;;;;9.70;90.20;;;;;;5093834;28;19943;-89
2022/04/25 00:17:41;;;;;;;;;;;9.70;90.20;;;;;;5093192;28;19948;-89
2022/04/25 00:20:08;;;;;;;;;;;9.60;90.00;;;;;;5093392;28;19946;-89
2022/04/25 00:22:34;;;;;;;;;;;9.70;89.70;;;;;;5093367;28;19944;-89
2022/04/25 00:25:00;;;;;;;;;;;9.70;89.60;;;;;;5093723;28;20028;-89
2022/04/25 00:27:28;;;;;;;;;;;9.70;89.50;;;;;;5093606;28;19984;-89
2022/04/25 00:29:54;;;;;;;;;;;9.60;89.60;;;;;;5093595;28;19944;-89
2022/04/25 00:32:19;;;;;;;;;;;9.70;89.90;;;;;;5093033;28;20399;-89
2022/04/25 00:34:45;;;;;;;;;;;9.70;90.10;;;;;;5093031;28;19943;-89
2022/04/25 00:37:10;;;;;;;;;;;9.70;90.30;;;;;;5093063;28;19944;-89
2022/04/25 00:39:36;;;;;;;;;;;9.70;90.10;;;;;;5093076;28;20380;-89
2022/04/25 00:42:02;;;;;;;;;;;9.60;89.90;;;;;;5093705;28;19953;-90
2022/04/25 00:44:27;;;;;;;;;;;9.50;90.00;;;;;;5093392;28;19991;-89
2022/04/25 00:46:53;;;;;;;;;;;9.50;90.40;;;;;;5093437;28;20028;-89
2022/04/25 00:49:19;;;;;;;;;;;9.40;90.90;;;;;;5093016;28;19941;-89
2022/04/25 00:51:46;;;;;;;;;;;9.40;91.30;;;;;;5092694;28;19978;-89
2022/04/25 00:54:13;;;;;;;;;;;9.40;91.60;;;;;;5092917;28;20490;-89
2022/04/25 00:56:38;;;;;;;;;;;9.40;91.90;;;;;;5093260;28;20004;-89
2022/04/25 00:59:04;;;;;;;;;;;9.40;92.20;;;;;;5093197;28;20316;-89
2022/04/25 01:01:31;;;;;;;;;;;9.40;92.40;;;;;;5091977;28;19939;-89
2022/04/25 01:03:57;;;;;;;;;;;9.40;91.80;;;;;;5092854;28;20021;-89
2022/04/25 01:06:22;;;;;;;;;;;9.30;91.40;;;;;;5092979;28;19988;-89
2022/04/25 01:08:50;;;;;;;;;;;9.30;91.20;;;;;;5093845;28;19969;-89
2022/04/25 01:11:16;;;;;;;;;;;9.30;90.80;;;;;;5097331;28;19945;-89
2022/04/25 01:13:43;;;;;;;;;;;9.30;90.50;;;;;;5096939;28;19975;-89
2022/04/25 01:16:08;;;;;;;;;;;9.20;90.20;;;;;;5097046;28;19947;-89
2022/04/25 01:18:34;;;;;;;;;;;9.10;89.80;;;;;;5096828;28;20099;-89
2022/04/25 01:21:00;;;;;;;;;;;9.00;89.80;;;;;;5095882;28;20419;-89
2022/04/25 01:28:54;;;;;;;;;;;8.70;90.20;;;;;;5097015;28;19989;-89
2022/04/25 01:31:20;;;;;;;;;;;8.80;90.90;;;;;;5095642;28;20415;-89
2022/04/25 01:33:45;;;;;;;;;;;8.90;91.30;;;;;;5096168;28;20500;-88
2022/04/25 01:36:14;;;;;;;;;;;9.00;91.40;;;;;;5096840;28;19947;-89
2022/04/25 01:38:39;;;;;;;;;;;9.10;91.20;;;;;;5096604;28;20032;-89
2022/04/25 01:41:06;;;;;;;;;;;9.00;90.90;;;;;;5096765;28;20368;-89
2022/04/25 01:43:35;;;;;;;;;;;9.00;90.90;;;;;;5096793;28;19946;-89
2022/04/25 01:46:03;;;;;;;;;;;9.00;90.70;;;;;;5096713;28;19962;-89
2022/04/25 01:48:29;;;;;;;;;;;9.00;90.90;;;;;;5096328;28;19941;-89
2022/04/25 01:50:55;;;;;;;;;;;9.00;91.40;;;;;;5096560;28;19955;-89
2022/04/25 01:53:21;;;;;;;;;;;9.10;91.70;;;;;;5095924;28;19972;-89
2022/04/25 01:55:46;;;;;;;;;;;9.20;91.90;;;;;;5096513;28;19988;-89
2022/04/25 01:58:12;;;;;;;;;;;9.20;92.00;;;;;;5096455;28;19940;-89
2022/04/25 02:00:38;;;;;;;;;;;9.10;91.90;;;;;;5094449;28;19960;-88
2022/04/25 02:03:03;;;;;;;;;;;9.20;92.10;;;;;;5096360;28;20028;-89
2022/04/25 02:05:29;;;;;;;;;;;9.20;92.00;;;;;;5096341;28;20403;-89
2022/04/25 02:07:54;;;;;;;;;;;9.20;91.70;;;;;;5096008;28;19987;-88
2022/04/25 02:10:20;;;;;;;;;;;9.20;91.50;;;;;;5096213;28;20299;-89
2022/04/25 02:12:45;;;;;;;;;;;9.20;91.10;;;;;;5096112;28;20001;-89
2022/04/25 02:15:13;;;;;;;;;;;9.20;90.60;;;;;;5095869;28;19947;-89
2022/04/25 02:17:39;;;;;;;;;;;9.20;90.40;;;;;;5095659;28;20317;-88
2022/04/25 02:20:05;;;;;;;;;;;9.30;90.40;;;;;;5094465;28;20393;-88
2022/04/25 02:22:35;;;;;;;;;;;9.40;90.50;;;;;;5095686;28;19942;-89
2022/04/25 02:25:01;;;;;;;;;;;9.40;90.10;;;;;;5095764;28;19964;-89
2022/04/25 02:27:26;;;;;;;;;;;9.40;90.20;;;;;;5095913;28;19941;-89
2022/04/25 02:29:57;;;;;;;;;;;9.50;90.20;;;;;;5095860;28;20348;-88
2022/04/25 02:32:23;;;;;;;;;;;9.50;90.10;;;;;;5095604;28;20304;-89
2022/04/25 02:34:50;;;;;;;;;;;9.50;90.00;;;;;;5095388;28;19951;-89
2022/04/25 02:37:16;;;;;;;;;;;9.40;90.20;;;;;;5095298;28;19944;-88
2022/04/25 02:39:41;;;;;;;;;;;9.40;90.80;;;;;;5095649;28;20031;-89
2022/04/25 02:42:07;;;;;;;;;;;9.40;91.10;;;;;;5095634;28;20304;-89
2022/04/25 02:44:33;;;;;;;;;;;9.40;91.10;;;;;;5095374;28;19998;-89
2022/04/25 02:46:58;;;;;;;;;;;9.40;91.20;;;;;;5095543;28;19945;-89
2022/04/25 02:49:24;;;;;;;;;;;9.40;91.20;;;;;;5095720;28;20035;-88
2022/04/25 02:51:49;;;;;;;;;;;9.40;91.30;;;;;;5095030;28;20327;-89
2022/04/25 02:54:15;;;;;;;;;;;9.40;91.70;;;;;;5095149;28;19972;-89
2022/04/25 02:56:40;;;;;;;;;;;9.50;91.80;;;;;;5095102;28;20537;-89
2022/04/25 02:59:07;;;;;;;;;;;9.50;91.80;;;;;;5095283;28;19940;-89
2022/04/25 03:01:32;;;;;;;;;;;9.50;91.80;;;;;;5095271;28;20345;-89
2022/04/25 03:03:58;;;;;;;;;;;9.40;91.90;;;;;;5095258;28;20082;-89
2022/04/25 03:06:23;;;;;;;;;;;9.50;92.20;;;;;;5095380;28;19953;-89
2022/04/25 03:08:49;;;;;;;;;;;9.50;92.40;;;;;;5094441;28;20325;-89
2022/04/25 03:11:15;;;;;;;;;;;9.60;92.70;;;;;;5095081;28;19968;-88
2022/04/25 03:13:40;;;;;;;;;;;9.60;92.60;;;;;;5094700;28;19980;-89
2022/04/25 03:16:06;;;;;;;;;;;9.70;92.80;;;;;;5094939;28;19941;-89
2022/04/25 03:18:32;;;;;;;;;;;9.80;92.80;;;;;;5094899;28;19992;-89
2022/04/25 03:20:58;;;;;;;;;;;9.80;92.50;;;;;;5094849;28;19988;-90
2022/04/25 03:23:23;;;;;;;;;;;9.80;92.40;;;;;;5094453;28;19955;-89
2022/04/25 03:25:50;;;;;;;;;;;9.90;92.20;;;;;;5094742;28;19947;-89
2022/04/25 03:28:16;;;;;;;;;;;9.90;92.20;;;;;;5094709;28;20291;-90
2022/04/25 03:30:42;;;;;;;;;;;9.80;92.20;;;;;;5094671;28;20030;-90
2022/04/25 03:33:10;;;;;;;;;;;9.90;92.30;;;;;;5093084;28;20009;-89
2022/04/25 03:35:36;;;;;;;;;;;9.70;92.10;;;;;;5094608;28;19954;-89
2022/04/25 03:38:02;;;;;;;;;;;9.60;92.30;;;;;;5094025;28;19981;-89
2022/04/25 03:40:28;;;;;;;;;;;9.70;92.60;;;;;;5093906;28;19991;-89
2022/04/25 03:42:55;;;;;;;;;;;9.80;92.70;;;;;;5093906;28;19944;-89
2022/04/25 03:45:21;;;;;;;;;;;9.90;92.70;;;;;;5094636;28;19953;-89
2022/04/25 03:47:47;;;;;;;;;;;9.90;92.50;;;;;;5094080;28;19941;-89
2022/04/25 03:50:13;;;;;;;;;;;9.80;92.30;;;;;;5094247;28;19943;-89
2022/04/25 03:52:40;;;;;;;;;;;9.70;92.40;;;;;;5093732;28;20099;-89
2022/04/25 03:57:51;;;;;;;;;;;9.90;92.70;;;;;;5094055;28;20055;-89
2022/04/25 04:00:17;;;;;;;;;;;9.90;92.80;;;;;;5094134;28;19941;-89
2022/04/25 04:02:43;;;;;;;;;;;10.00;92.80;;;;;;5094076;28;19936;-89
2022/04/25 04:05:09;;;;;;;;;;;9.90;93.00;;;;;;5094319;28;20056;-89
2022/04/25 04:14:28;;;;;;;;;;;9.90;93.40;;;;;;5143979;27;20375;-90
2022/04/25 08:09:22;;;;;;;;;;;9.90;94.00;;;;;;5134275;27;20430;-89
2022/04/25 08:11:47;;;;;;;;;;;15.60;76.90;;;;;;5090683;28;19949;-89
2022/04/25 08:19:22;;;;;;;;;;;15.40;78.10;;;;;;5090477;28;19947;-89
2022/04/25 08:21:48;;;;;;;;;;;15.50;77.80;;;;;;5090465;28;19950;-89
2022/04/25 08:24:14;;;;;;;;;;;15.70;77.20;;;;;;5090412;28;20305;-90
2022/04/25 08:26:40;;;;;;;;;;;15.80;78.20;;;;;;5090415;28;19943;-90
2022/04/25 08:29:05;;;;;;;;;;;15.80;77.10;;;;;;5090032;28;20434;-89
2022/04/25 08:31:32;;;;;;;;;;;15.90;78.30;;;;;;5089943;28;20038;-89
2022/04/25 08:33:58;;;;;;;;;;;16.00;80.60;;;;;;5090484;28;19953;-89
2022/04/25 08:36:23;;;;;;;;;;;16.20;78.20;;;;;;5090189;28;19942;-89
2022/04/25 08:38:49;;;;;;;;;;;16.30;76.00;;;;;;5089873;28;20412;-89
2022/04/25 08:41:16;;;;;;;;;;;16.50;74.70;;;;;;5089779;28;19956;-89
2022/04/25 08:43:41;;;;;;;;;;;16.60;74.60;;;;;;5090029;28;20315;-89
2022/04/25 08:46:09;;;;;;;;;;;16.60;74.10;;;;;;5088420;28;19996;-89
2022/04/25 08:48:35;;;;;;;;;;;16.70;72.10;;;;;;5089914;28;19971;-89
2022/04/25 08:51:02;;;;;;;;;;;16.80;72.00;;;;;;5090000;28;20500;-90
2022/04/25 08:53:27;;;;;;;;;;;17.00;71.90;;;;;;5089917;28;19944;-90
2022/04/25 08:55:54;;;;;;;;;;;17.10;72.70;;;;;;5089561;28;19948;-89
2022/04/25 08:58:21;;;;;;;;;;;17.30;70.50;;;;;;5089773;28;19955;-89
2022/04/25 09:00:46;;;;;;;;;;;17.30;70.70;;;;;;5089729;28;19940;-89
2022/04/25 09:03:13;;;;;;;;;;;17.50;72.40;;;;;;5089749;28;19955;-89
2022/04/25 09:05:38;;;;;;;;;;;17.60;71.00;;;;;;5089399;28;19950;-89
2022/04/25 09:08:04;;;;;;;;;;;17.80;67.90;;;;;;5089393;28;20068;-90
2022/04/25 09:10:30;;;;;;;;;;;17.90;68.20;;;;;;5088956;28;20138;-90
2022/04/25 09:12:58;;;;;;;;;;;18.10;68.40;;;;;;5089469;28;20290;-89
2022/04/25 09:15:24;;;;;;;;;;;18.20;65.60;;;;;;5089453;28;19961;-90
2022/04/25 09:17:49;;;;;;;;;;;18.20;67.50;;;;;;5089451;28;20299;-89
2022/04/25 09:20:15;;;;;;;;;;;18.10;66.20;;;;;;5078310;28;19950;-89
2022/04/25 09:22:41;;;;;;;;;;;18.10;66.40;;;;;;5075482;28;20039;-90
2022/04/25 09:25:10;;;;;;;;;;;18.30;67.80;;;;;;5075440;28;20027;-90
2022/04/25 09:27:37;;;;;;;;;;;18.20;68.00;;;;;;5075626;28;20335;-89
2022/04/25 09:30:16;;;;;;;;;;;18.00;67.10;;;;;;5075658;28;20009;-90
2022/04/25 09:32:42;;;;;;;;;;;18.00;67.40;;;;;;5075553;28;19944;-89
2022/04/25 09:35:29;;;;;;;;;;;18.00;67.90;;;;;;5075600;28;19941;-90
2022/04/25 09:37:56;;;;;;;;;;;17.90;67.60;;;;;;5075788;28;19943;-90
2022/04/25 09:40:22;;;;;;;;;;;17.90;68.60;;;;;;5073646;28;19952;-90
2022/04/25 09:43:03;;;;;;;;;;;18.00;69.10;;;;;;5075795;28;19965;-90
2022/04/25 09:45:29;;;;;;;;;;;18.20;68.80;;;;;;5074097;28;19938;-90
2022/04/25 09:47:55;;;;;;;;;;;18.30;68.20;;;;;;5075351;28;19961;-89
2022/04/25 09:50:20;;;;;;;;;;;18.10;65.40;;;;;;5075073;28;19954;-89
2022/04/25 09:52:55;;;;;;;;;;;18.00;66.80;;;;;;5075055;28;19947;-90
2022/04/25 09:55:22;;;;;;;;;;;18.00;65.10;;;;;;5074941;28;19948;-89
2022/04/25 09:57:49;;;;;;;;;;;18.00;66.40;;;;;;5075146;28;19989;-89
2022/04/25 10:00:37;;;;;;;;;;;18.00;65.40;;;;;;5074893;28;19947;-89
2022/04/25 10:03:04;;;;;;;;;;;18.20;62.50;;;;;;5075131;28;19939;-89
2022/04/25 10:05:37;;;;;;;;;;;18.30;64.40;;;;;;5074770;28;19946;-89
2022/04/25 10:08:03;;;;;;;;;;;18.50;63.80;;;;;;5074352;28;19974;-89
2022/04/25 10:10:29;;;;;;;;;;;18.70;64.30;;;;;;5074483;28;19967;-89
2022/04/25 10:12:55;;;;;;;;;;;18.90;62.20;;;;;;5074597;28;19959;-89
2022/04/25 10:15:21;;;;;;;;;;;19.00;61.20;;;;;;5075120;28;20036;-89
2022/04/25 10:17:47;;;;;;;;;;;19.00;57.90;;;;;;5075129;28;19948;-89
2022/04/25 10:20:14;;;;;;;;;;;18.90;61.50;;;;;;5074797;28;19939;-89
2022/04/25 10:22:40;;;;;;;;;;;19.20;59.30;;;;;;5074446;28;19946;-90
2022/04/25 10:25:05;;;;;;;;;;;19.30;57.00;;;;;;5074343;28;20037;-90
2022/04/25 10:27:32;;;;;;;;;;;19.40;59.80;;;;;;5074585;28;20027;-89
2022/04/25 10:30:01;;;;;;;;;;;19.20;58.30;;;;;;5073251;28;20378;-89
2022/04/25 10:32:26;;;;;;;;;;;19.30;59.90;;;;;;5073109;28;20415;-89
2022/04/25 10:34:59;;;;;;;;;;;19.40;59.40;;;;;;5074474;28;19949;-89
2022/04/25 10:37:29;;;;;;;;;;;19.60;61.50;;;;;;5074400;28;20462;-90
2022/04/25 10:39:55;;;;;;;;;;;19.80;56.90;;;;;;5073785;28;20504;-90
2022/04/25 10:45:04;;;;;;;;;;;20.10;58.00;;;;;;5074266;28;20050;-90
2022/04/25 10:47:30;;;;;;;;;;;20.00;57.00;;;;;;5073650;28;20051;-90
2022/04/25 10:49:56;;;;;;;;;;;19.90;57.90;;;;;;5074326;28;19989;-90
2022/04/25 10:52:34;;;;;;;;;;;19.70;57.30;;;;;;5074120;28;19944;-89
2022/04/25 10:55:09;;;;;;;;;;;19.60;60.40;;;;;;5073885;28;20364;-89
2022/04/25 10:57:34;;;;;;;;;;;19.60;58.10;;;;;;5074006;28;19949;-90
2022/04/25 11:00:00;;;;;;;;;;;19.70;57.90;;;;;;5074236;28;19948;-89
2022/04/25 11:02:26;;;;;;;;;;;19.70;62.70;;;;;;5073922;28;20428;-89
2022/04/25 11:05:10;;;;;;;;;;;19.90;61.00;;;;;;5073516;28;19943;-90
2022/04/25 11:07:37;;;;;;;;;;;20.00;58.80;;;;;;5073597;28;19986;-89
2022/04/25 11:10:03;;;;;;;;;;;20.30;58.50;;;;;;5073359;28;19969;-89
2022/04/25 11:12:48;;;;;;;;;;;20.50;56.50;;;;;;5073993;28;19978;-89
2022/04/25 11:15:33;;;;;;;;;;;20.40;55.40;;;;;;5072792;28;19948;-89
2022/04/25 11:18:18;;;;;;;;;;;20.60;55.40;;;;;;5073577;28;20402;-90
2022/04/25 11:21:07;;;;;;;;;;;20.80;54.30;;;;;;5073232;28;19985;-90
2022/04/25 11:23:33;;;;;;;;;;;20.80;56.10;;;;;;5073512;28;19940;-89
2022/04/25 11:25:59;;;;;;;;;;;20.90;56.20;;;;;;5073485;28;20384;-90
2022/04/25 11:28:26;;;;;;;;;;;20.80;56.30;;;;;;5073403;28;19965;-90
2022/04/25 11:31:10;;;;;;;;;;;20.80;54.80;;;;;;5073462;28;19936;-89
2022/04/25 11:33:42;;;;;;;;;;;20.80;56.40;;;;;;5053397;28;19953;-90
2022/04/25 11:36:08;;;;;;;;;;;21.00;57.00;;;;;;5053412;28;19936;-90
2022/04/25 11:41:22;;;;;;;;;;;21.10;54.10;;;;;;5053936;28;19970;-90
2022/04/25 11:43:47;;;;;;;;;;;20.80;54.50;;;;;;5053096;28;19948;-89
2022/04/25 11:46:13;;;;;;;;;;;20.60;56.10;;;;;;5053524;28;19944;-89
2022/04/25 11:48:39;;;;;;;;;;;20.30;58.00;;;;;;5063936;28;19966;-89
2022/04/25 11:51:04;;;;;;;;;;;20.00;56.20;;;;;;5073213;28;19940;-89
2022/04/25 11:53:31;;;;;;;;;;;19.90;58.90;;;;;;5073189;28;19941;-89
2022/04/25 11:55:57;;;;;;;;;;;20.00;57.10;;;;;;5072863;28;19962;-89
2022/04/25 11:58:29;;;;;;;;;;;20.20;56.60;;;;;;5072830;28;19952;-90
2022/04/25 12:00:54;;;;;;;;;;;20.70;57.60;;;;;;5073088;28;20395;-90
2022/04/25 12:03:21;;;;;;;;;;;21.40;54.40;;;;;;5073129;28;19942;-90
2022/04/25 12:05:46;;;;;;;;;;;22.20;53.10;;;;;;5072683;28;19943;-90
2022/04/25 12:16:33;;;;;;;;;;;23.00;50.90;;;;;;5062111;28;20349;-90
2022/04/25 12:19:00;;;;;;;;;;;23.00;47.70;;;;;;5072937;28;19964;-90
2022/04/25 12:21:25;;;;;;;;;;;23.10;46.60;;;;;;5072897;28;19947;-90
2022/04/25 12:23:52;;;;;;;;;;;23.00;46.10;;;;;;5072510;28;19947;-90
2022/04/25 12:26:27;;;;;;;;;;;23.10;48.10;;;;;;5073062;28;20389;-90
2022/04/25 12:28:57;;;;;;;;;;;23.40;47.20;;;;;;5072759;28;20423;-90
2022/04/25 12:31:22;;;;;;;;;;;24.00;45.30;;;;;;5073037;28;20088;-90
2022/04/25 12:33:48;;;;;;;;;;;24.50;43.70;;;;;;5072394;28;20530;-90
2022/04/25 12:36:18;;;;;;;;;;;24.70;42.80;;;;;;5072720;28;19942;-90
2022/04/25 12:38:44;;;;;;;;;;;24.30;43.30;;;;;;5072719;28;19960;-90
2022/04/25 12:41:17;;;;;;;;;;;23.80;45.40;;;;;;5072443;28;19947;-90
2022/04/25 12:43:45;;;;;;;;;;;23.20;45.10;;;;;;5072673;28;19937;-90
2022/04/25 12:46:12;;;;;;;;;;;23.00;45.40;;;;;;5072705;28;19945;-91
2022/04/25 12:48:58;;;;;;;;;;;23.20;45.40;;;;;;5072828;28;20014;-90
2022/04/25 12:51:34;;;;;;;;;;;23.40;44.70;;;;;;5072615;28;19947;-90
2022/04/25 12:54:00;;;;;;;;;;;23.60;46.20;;;;;;5072259;28;19956;-90
2022/04/25 12:56:28;;;;;;;;;;;24.20;44.20;;;;;;5076233;28;19955;-90
2022/04/25 12:58:54;;;;;;;;;;;25.10;39.80;;;;;;5076337;28;20436;-91
2022/04/25 13:01:33;;;;;;;;;;;25.20;39.90;;;;;;5076862;28;19966;-90
2022/04/25 13:04:04;;;;;;;;;;;25.40;38.50;;;;;;5076220;28;20310;-90
2022/04/25 13:06:30;;;;;;;;;;;25.50;38.60;;;;;;5076189;28;19949;-90
2022/04/25 13:08:56;;;;;;;;;;;25.70;39.50;;;;;;5075490;28;19983;-90
2022/04/25 13:11:22;;;;;;;;;;;25.70;39.20;;;;;;5076071;28;19954;-90
2022/04/25 13:13:50;;;;;;;;;;;25.30;39.80;;;;;;5076007;28;19943;-90
2022/04/25 13:16:16;;;;;;;;;;;24.90;40.80;;;;;;5075962;28;19951;-90
2022/04/25 13:18:42;;;;;;;;;;;24.60;41.40;;;;;;5075938;28;19936;-90
2022/04/25 13:21:08;;;;;;;;;;;23.80;44.10;;;;;;5075604;28;20421;-90
2022/04/25 13:23:33;;;;;;;;;;;23.30;44.20;;;;;;5075831;28;20461;-90
2022/04/25 13:25:59;;;;;;;;;;;23.10;45.70;;;;;;5075530;28;19944;-90
2022/04/25 13:28:24;;;;;;;;;;;22.80;45.90;;;;;;5075739;28;19967;-90
2022/04/25 13:30:53;;;;;;;;;;;22.60;45.00;;;;;;5075145;28;19936;-90
2022/04/25 13:33:18;;;;;;;;;;;22.40;46.10;;;;;;5075657;28;19968;-90
2022/04/25 13:35:44;;;;;;;;;;;22.00;46.90;;;;;;5075650;28;20399;-90
2022/04/25 13:38:10;;;;;;;;;;;21.80;47.00;;;;;;5075858;28;19946;-90
2022/04/25 13:40:36;;;;;;;;;;;21.70;46.70;;;;;;5074009;28;19959;-90
2022/04/25 13:43:02;;;;;;;;;;;21.70;46.90;;;;;;5074571;28;19946;-91
2022/04/25 13:45:27;;;;;;;;;;;21.60;50.60;;;;;;5075483;28;19943;-90
2022/04/25 13:47:54;;;;;;;;;;;21.30;51.40;;;;;;5075057;28;20002;-90
2022/04/25 13:50:19;;;;;;;;;;;21.20;50.20;;;;;;5075385;28;19948;-90
2022/04/25 13:52:45;;;;;;;;;;;21.00;51.30;;;;;;5075338;28;20415;-90
2022/04/25 13:55:12;;;;;;;;;;;20.80;52.40;;;;;;5074984;28;19938;-90
2022/04/25 13:57:38;;;;;;;;;;;20.60;53.10;;;;;;5075223;28;19952;-90
2022/04/25 14:00:04;;;;;;;;;;;20.30;54.40;;;;;;5075202;28;19943;-90
2022/04/25 14:05:14;;;;;;;;;;;20.00;55.20;;;;;;5074760;28;20462;-90
2022/04/25 14:07:39;;;;;;;;;;;19.90;54.80;;;;;;5074971;28;20083;-90
2022/04/25 14:10:05;;;;;;;;;;;19.80;56.70;;;;;;5074352;28;20019;-90
2022/04/25 14:12:31;;;;;;;;;;;19.70;57.80;;;;;;5073278;28;19979;-90
2022/04/25 14:14:56;;;;;;;;;;;19.60;57.20;;;;;;5074919;28;19945;-90
2022/04/25 14:17:22;;;;;;;;;;;19.50;59.80;;;;;;5074911;28;20033;-90
2022/04/25 14:19:47;;;;;;;;;;;19.40;58.70;;;;;;5074817;28;19965;-90
2022/04/25 14:22:13;;;;;;;;;;;19.40;58.30;;;;;;5074537;28;20335;-90
2022/04/25 14:24:38;;;;;;;;;;;19.30;59.20;;;;;;5074439;28;19946;-90
2022/04/25 14:27:04;;;;;;;;;;;19.40;57.90;;;;;;5073259;28;20381;-90
2022/04/25 14:29:31;;;;;;;;;;;19.60;58.20;;;;;;5073967;28;19962;-90
2022/04/25 14:31:56;;;;;;;;;;;19.80;57.70;;;;;;5074105;28;19942;-90
2022/04/25 14:34:22;;;;;;;;;;;19.80;57.00;;;;;;5074230;28;19944;-90
2022/04/25 14:36:47;;;;;;;;;;;19.90;56.80;;;;;;5074115;28;19951;-90
2022/04/25 14:39:13;;;;;;;;;;;20.00;57.40;;;;;;5074375;28;19941;-90
2022/04/25 14:41:39;;;;;;;;;;;20.00;56.90;;;;;;5074066;28;20005;-90
2022/04/25 14:44:04;;;;;;;;;;;20.00;55.80;;;;;;5074256;28;19989;-90
2022/04/25 14:46:30;;;;;;;;;;;19.90;55.90;;;;;;5074509;28;19943;-89
2022/04/25 14:48:56;;;;;;;;;;;19.90;56.60;;;;;;5074096;28;19985;-90
2022/04/25 14:54:21;;;;;;;;;;;19.60;58.30;;;;;;5074139;28;19947;-90
2022/04/25 14:56:50;;;;;;;;;;;19.40;59.70;;;;;;5074370;28;19954;-90
2022/04/25 14:59:15;;;;;;;;;;;19.30;59.90;;;;;;5074018;28;19995;-90
2022/04/25 15:01:41;;;;;;;;;;;19.30;59.90;;;;;;5073668;28;19943;-90
2022/04/25 15:04:07;;;;;;;;;;;19.20;60.80;;;;;;5073920;28;19942;-90
2022/04/25 15:06:32;;;;;;;;;;;19.10;61.60;;;;;;5073863;28;20439;-90
2022/04/25 15:08:58;;;;;;;;;;;19.00;61.40;;;;;;5073291;28;20047;-90
2022/04/25 15:11:23;;;;;;;;;;;18.90;61.50;;;;;;5073598;28;19958;-90
2022/04/25 15:13:49;;;;;;;;;;;18.80;61.90;;;;;;5073763;28;19939;-90
2022/04/25 15:16:15;;;;;;;;;;;18.80;62.70;;;;;;5072733;28;20294;-90
2022/04/25 15:18:40;;;;;;;;;;;18.70;62.30;;;;;;5073183;28;19946;-90
2022/04/25 15:21:06;;;;;;;;;;;18.60;62.10;;;;;;5073639;28;19948;-90
2022/04/25 15:23:32;;;;;;;;;;;18.50;62.30;;;;;;5073614;28;19980;-90
2022/04/25 15:25:57;;;;;;;;;;;18.50;63.00;;;;;;5073531;28;19948;-89
2022/04/25 15:28:23;;;;;;;;;;;18.40;63.60;;;;;;5073474;28;20060;-90
2022/04/25 15:30:48;;;;;;;;;;;18.40;63.90;;;;;;5073184;28;20037;-90
2022/04/25 15:33:14;;;;;;;;;;;18.40;63.80;;;;;;5073419;28;20381;-90
2022/04/25 15:35:42;;;;;;;;;;;18.40;63.80;;;;;;5073136;28;19944;-90
2022/04/25 15:38:08;;;;;;;;;;;18.40;64.20;;;;;;5073413;28;20034;-90
2022/04/25 15:40:36;;;;;;;;;;;18.40;64.40;;;;;;5073119;28;19993;-90
2022/04/25 15:43:01;;;;;;;;;;;18.50;65.10;;;;;;5072056;28;19955;-90
2022/04/25 15:45:27;;;;;;;;;;;18.50;65.90;;;;;;5073039;28;19951;-90
2022/04/25 15:47:58;;;;;;;;;;;18.50;65.30;;;;;;5073221;28;20398;-90
2022/04/25 15:50:24;;;;;;;;;;;18.50;64.40;;;;;;5073250;28;19947;-90
2022/04/25 15:52:50;;;;;;;;;;;18.60;63.70;;;;;;5073211;28;20010;-90
2022/04/25 15:58:00;;;;;;;;;;;18.80;63.60;;;;;;5073121;28;19989;-90
2022/04/25 16:00:26;;;;;;;;;;;19.00;63.90;;;;;;5073380;28;19950;-89
2022/04/25 16:02:53;;;;;;;;;;;19.10;64.00;;;;;;5073125;28;19938;-90
2022/04/25 16:05:19;;;;;;;;;;;19.30;64.20;;;;;;5072805;28;20465;-90
2022/04/25 16:07:45;;;;;;;;;;;19.30;64.10;;;;;;5073010;22;20036;-90
2022/04/25 16:10:10;;;;;;;;;;;19.50;64.20;;;;;;5052392;28;20047;-90
2022/04/25 16:12:36;;;;;;;;;;;19.50;63.70;;;;;;5052783;28;19944;-90
2022/04/25 16:15:02;;;;;;;;;;;19.60;64.80;;;;;;5052513;28;20339;-90
2022/04/25 16:17:28;;;;;;;;;;;19.80;64.30;;;;;;5052540;28;20176;-90
2022/04/25 16:19:53;;;;;;;;;;;20.10;63.50;;;;;;5052594;28;19934;-89
2022/04/25 16:22:19;;;;;;;;;;;20.50;62.70;;;;;;5052009;28;20350;-90
2022/04/25 16:24:44;;;;;;;;;;;20.90;61.80;;;;;;5052866;28;19945;-90
2022/04/25 16:27:10;;;;;;;;;;;21.00;60.80;;;;;;5052931;28;20315;-90
2022/04/25 16:29:36;;;;;;;;;;;20.90;61.10;;;;;;5054224;28;19986;-90
2022/04/25 16:32:02;;;;;;;;;;;20.80;61.60;;;;;;5056701;28;19944;-90
2022/04/25 16:34:30;;;;;;;;;;;20.70;61.80;;;;;;5056768;28;19943;-90
2022/04/25 16:36:56;;;;;;;;;;;20.40;62.00;;;;;;5056508;28;20003;-89
2022/04/25 16:39:23;;;;;;;;;;;20.20;63.40;;;;;;5056731;28;20360;-90
2022/04/25 16:41:48;;;;;;;;;;;19.90;64.80;;;;;;5056591;28;19955;-89
2022/04/25 16:44:14;;;;;;;;;;;19.70;65.50;;;;;;5056583;28;19992;-90
2022/04/25 16:46:42;;;;;;;;;;;19.50;66.70;;;;;;5056270;28;20448;-90
2022/04/25 16:49:09;;;;;;;;;;;19.30;67.40;;;;;;5056422;28;19973;-90
2022/04/25 16:51:34;;;;;;;;;;;19.30;67.90;;;;;;5038592;28;19940;-90
2022/04/25 16:54:00;;;;;;;;;;;19.20;68.50;;;;;;5056437;28;19945;-90
2022/04/25 16:56:25;;;;;;;;;;;19.00;68.30;;;;;;5056002;28;19955;-90
2022/04/25 16:58:51;;;;;;;;;;;18.80;68.50;;;;;;5056335;28;19945;-90
2022/04/25 17:01:17;;;;;;;;;;;18.80;69.30;;;;;;5056247;28;19947;-90
2022/04/25 17:03:42;;;;;;;;;;;18.70;70.20;;;;;;5056215;28;19943;-90
2022/04/25 17:06:08;;;;;;;;;;;18.50;70.70;;;;;;5055670;28;19940;-90
2022/04/25 17:08:34;;;;;;;;;;;18.40;70.80;;;;;;5055873;28;19976;-89
2022/04/25 17:11:00;;;;;;;;;;;18.30;69.70;;;;;;5055650;28;19956;-90
2022/04/25 17:13:25;;;;;;;;;;;18.30;69.20;;;;;;5055316;28;20012;-90
2022/04/25 17:15:52;;;;;;;;;;;18.20;69.50;;;;;;5055727;28;20000;-90
2022/04/25 17:18:17;;;;;;;;;;;18.10;70.00;;;;;;5055987;28;19937;-90
2022/04/25 17:20:43;;;;;;;;;;;18.00;69.30;;;;;;5056273;28;20001;-90
2022/04/25 17:23:08;;;;;;;;;;;18.00;69.00;;;;;;5055587;28;19949;-89
2022/04/25 17:25:37;;;;;;;;;;;17.90;69.00;;;;;;5055500;28;19953;-90
2022/04/25 17:28:06;;;;;;;;;;;17.80;69.50;;;;;;5055406;28;19964;-90
2022/04/25 17:30:31;;;;;;;;;;;17.80;69.10;;;;;;5055747;28;19943;-90
2022/04/25 17:35:44;;;;;;;;;;;17.60;69.10;;;;;;5055664;28;19947;-90
